sensor_id;sensor_type;location;lat;lon;timestamp;temperature;humidity
63966;DHT22;50151;52.030;5.350;2023-02-22T08:34:26;5.70;99.90
63966;DHT22;50151;52.030;5.350;2023-02-22T08:36:53;5.70;99.90
63966;DHT22;50151;52.030;5.350;2023-02-22T08:39:20;5.80;99.90
63966;DHT22;50151;52.030;5.350;2023-02-22T08:41:47;5.80;99.90
63966;DHT22;50151;52.030;5.350;2023-02-22T08:44:14;5.70;99.90
63966;DHT22;50151;52.030;5.350;2023-02-22T08:46:40;5.90;99.90
63966;DHT22;50151;52.030;5.350;2023-02-22T08:49:07;5.90;99.90
63966;DHT22;50151;52.030;5.350;2023-02-22T08:51:35;5.90;99.90
63966;DHT22;50151;52.030;5.350;2023-02-22T08:54:02;6.00;99.90
63966;DHT22;50151;52.030;5.350;2023-02-22T08:56:29;6.10;99.90
63966;DHT22;50151;52.030;5.350;2023-02-22T08:58:56;6.10;99.90
63966;DHT22;50151;52.030;5.350;2023-02-22T09:01:25;6.10;99.90
63966;DHT22;50151;52.030;5.350;2023-02-22T09:03:59;6.10;99.90
63966;DHT22;50151;52.030;5.350;2023-02-22T09:06:26;6.10;99.90
63966;DHT22;50151;52.030;5.350;2023-02-22T09:08:53;6.20;99.90
63966;DHT22;50151;52.030;5.350;2023-02-22T09:11:19;6.20;99.90
63966;DHT22;50151;52.030;5.350;2023-02-22T09:13:46;6.20;99.90
63966;DHT22;50151;52.030;5.350;2023-02-22T09:16:13;6.30;99.90
63966;DHT22;50151;52.030;5.350;2023-02-22T09:18:40;6.20;99.90
63966;DHT22;50151;52.030;5.350;2023-02-22T09:21:11;6.30;99.90
63966;DHT22;50151;52.030;5.350;2023-02-22T09:23:37;6.40;99.90
63966;DHT22;50151;52.030;5.350;2023-02-22T09:26:07;6.40;99.90
63966;DHT22;50151;52.030;5.350;2023-02-22T09:28:34;6.40;99.90
63966;DHT22;50151;52.030;5.350;2023-02-22T09:31:00;6.50;99.90
63966;DHT22;50151;52.030;5.350;2023-02-22T09:33:27;6.50;99.90
63966;DHT22;50151;52.030;5.350;2023-02-22T09:35:54;6.60;99.90
63966;DHT22;50151;52.030;5.350;2023-02-22T09:38:22;6.60;99.90
63966;DHT22;50151;52.030;5.350;2023-02-22T09:40:54;6.70;99.90
63966;DHT22;50151;52.030;5.350;2023-02-22T09:43:36;6.80;99.90
63966;DHT22;50151;52.030;5.350;2023-02-22T09:46:20;6.80;99.90
63966;DHT22;50151;52.030;5.350;2023-02-22T09:49:01;6.90;99.90
63966;DHT22;50151;52.030;5.350;2023-02-22T09:54:03;7.00;99.90
63966;DHT22;50151;52.030;5.350;2023-02-22T09:56:32;7.00;99.90
63966;DHT22;50151;52.030;5.350;2023-02-22T09:59:02;7.10;99.90
63966;DHT22;50151;52.030;5.350;2023-02-22T10:01:42;7.20;99.90
63966;DHT22;50151;52.030;5.350;2023-02-22T10:04:22;7.20;99.90
63966;DHT22;50151;52.030;5.350;2023-02-22T10:06:58;7.20;99.90
63966;DHT22;50151;52.030;5.350;2023-02-22T10:09:34;7.30;99.90
63966;DHT22;50151;52.030;5.350;2023-02-22T10:12:17;7.30;99.90
63966;DHT22;50151;52.030;5.350;2023-02-22T10:15:11;7.40;99.90
63966;DHT22;50151;52.030;5.350;2023-02-22T10:17:50;7.50;99.90
63966;DHT22;50151;52.030;5.350;2023-02-22T10:21:20;7.60;99.90
63966;DHT22;50151;52.030;5.350;2023-02-22T10:23:49;7.70;99.90
63966;DHT22;50151;52.030;5.350;2023-02-22T10:26:25;7.70;99.90
63966;DHT22;50151;52.030;5.350;2023-02-22T10:29:00;7.70;99.90
63966;DHT22;50151;52.030;5.350;2023-02-22T10:31:34;7.70;99.90
63966;DHT22;50151;52.030;5.350;2023-02-22T10:34:03;7.70;99.90
63966;DHT22;50151;52.030;5.350;2023-02-22T10:36:32;7.70;99.90
63966;DHT22;50151;52.030;5.350;2023-02-22T10:39:24;7.70;99.90
63966;DHT22;50151;52.030;5.350;2023-02-22T10:41:56;7.80;99.90
63966;DHT22;50151;52.030;5.350;2023-02-22T10:44:24;7.90;99.90
63966;DHT22;50151;52.030;5.350;2023-02-22T10:46:51;7.90;99.90
63966;DHT22;50151;52.030;5.350;2023-02-22T10:49:21;7.80;99.90
63966;DHT22;50151;52.030;5.350;2023-02-22T10:51:58;7.90;99.90
63966;DHT22;50151;52.030;5.350;2023-02-22T10:54:31;7.90;99.90
63966;DHT22;50151;52.030;5.350;2023-02-22T10:56:59;8.00;99.90
63966;DHT22;50151;52.030;5.350;2023-02-22T10:59:37;8.00;99.90
63966;DHT22;50151;52.030;5.350;2023-02-22T11:02:23;8.10;99.90
63966;DHT22;50151;52.030;5.350;2023-02-22T11:04:53;8.10;99.90
63966;DHT22;50151;52.030;5.350;2023-02-22T11:09:58;8.10;99.90
63966;DHT22;50151;52.030;5.350;2023-02-22T11:14:56;8.30;99.90
63966;DHT22;50151;52.030;5.350;2023-02-22T11:17:30;8.30;99.90
63966;DHT22;50151;52.030;5.350;2023-02-22T11:19:58;8.30;99.90
63966;DHT22;50151;52.030;5.350;2023-02-22T11:22:29;8.30;99.90
63966;DHT22;50151;52.030;5.350;2023-02-22T11:25:00;8.40;99.90
63966;DHT22;50151;52.030;5.350;2023-02-22T11:27:36;8.40;99.90
63966;DHT22;50151;52.030;5.350;2023-02-22T11:30:32;8.50;99.90
63966;DHT22;50151;52.030;5.350;2023-02-22T11:41:14;8.70;99.90
63966;DHT22;50151;52.030;5.350;2023-02-22T11:43:47;8.80;99.90
63966;DHT22;50151;52.030;5.350;2023-02-22T11:46:24;8.70;99.90
63966;DHT22;50151;52.030;5.350;2023-02-22T11:48:55;8.80;99.90
63966;DHT22;50151;52.030;5.350;2023-02-22T11:51:56;8.80;99.90
63966;DHT22;50151;52.030;5.350;2023-02-22T11:54:46;8.80;99.90
63966;DHT22;50151;52.030;5.350;2023-02-22T11:57:43;8.80;99.90
63966;DHT22;50151;52.030;5.350;2023-02-22T12:00:36;8.80;99.90
63966;DHT22;50151;52.030;5.350;2023-02-22T12:03:12;8.80;99.90
63966;DHT22;50151;52.030;5.350;2023-02-22T12:06:10;8.80;99.90
63966;DHT22;50151;52.030;5.350;2023-02-22T12:11:26;8.80;99.90
63966;DHT22;50151;52.030;5.350;2023-02-22T12:17:18;8.90;99.90
63966;DHT22;50151;52.030;5.350;2023-02-22T12:22:52;9.00;99.90
63966;DHT22;50151;52.030;5.350;2023-02-22T12:25:53;9.10;99.90
63966;DHT22;50151;52.030;5.350;2023-02-22T12:28:53;9.20;99.90
63966;DHT22;50151;52.030;5.350;2023-02-22T12:31:48;9.30;99.90
63966;DHT22;50151;52.030;5.350;2023-02-22T12:37:26;9.50;99.90
63966;DHT22;50151;52.030;5.350;2023-02-22T12:43:03;9.50;99.90
63966;DHT22;50151;52.030;5.350;2023-02-22T12:45:44;9.50;99.90
63966;DHT22;50151;52.030;5.350;2023-02-22T12:57:23;9.60;99.90
63966;DHT22;50151;52.030;5.350;2023-02-22T12:59:32;9.60;99.90
63966;DHT22;50151;52.030;5.350;2023-02-22T13:04:35;9.70;99.90
63966;DHT22;50151;52.030;5.350;2023-02-22T13:07:30;9.70;99.90
63966;DHT22;50151;52.030;5.350;2023-02-22T13:13:17;9.70;99.90
63966;DHT22;50151;52.030;5.350;2023-02-22T13:16:09;9.70;99.90
63966;DHT22;50151;52.030;5.350;2023-02-22T13:21:39;9.80;99.90
63966;DHT22;50151;52.030;5.350;2023-02-22T13:27:21;9.80;99.90
63966;DHT22;50151;52.030;5.350;2023-02-22T13:29:57;9.80;99.90
63966;DHT22;50151;52.030;5.350;2023-02-22T13:32:31;9.80;99.90
63966;DHT22;50151;52.030;5.350;2023-02-22T13:46:22;9.70;99.90
63966;DHT22;50151;52.030;5.350;2023-02-22T13:51:46;9.80;99.90
63966;DHT22;50151;52.030;5.350;2023-02-22T13:54:46;9.80;99.90
63966;DHT22;50151;52.030;5.350;2023-02-22T13:57:20;9.80;99.90
63966;DHT22;50151;52.030;5.350;2023-02-22T13:59:48;9.80;99.90
63966;DHT22;50151;52.030;5.350;2023-02-22T14:03:04;9.80;99.90
63966;DHT22;50151;52.030;5.350;2023-02-22T14:16:27;9.80;99.90
63966;DHT22;50151;52.030;5.350;2023-02-22T14:19:04;9.80;99.90
63966;DHT22;50151;52.030;5.350;2023-02-22T14:22:03;9.90;99.90
63966;DHT22;50151;52.030;5.350;2023-02-22T14:24:44;9.80;99.90
63966;DHT22;50151;52.030;5.350;2023-02-22T14:27:13;9.90;99.90
63966;DHT22;50151;52.030;5.350;2023-02-22T14:29:57;9.90;99.90
63966;DHT22;50151;52.030;5.350;2023-02-22T14:32:33;10.10;99.90
63966;DHT22;50151;52.030;5.350;2023-02-22T14:35:13;10.00;99.90
63966;DHT22;50151;52.030;5.350;2023-02-22T14:37:56;10.20;99.90
63966;DHT22;50151;52.030;5.350;2023-02-22T14:40:28;10.20;99.90
63966;DHT22;50151;52.030;5.350;2023-02-22T14:43:15;10.20;99.90
63966;DHT22;50151;52.030;5.350;2023-02-22T14:45:52;10.20;99.90
63966;DHT22;50151;52.030;5.350;2023-02-22T14:48:27;10.20;99.90
63966;DHT22;50151;52.030;5.350;2023-02-22T14:51:03;10.20;99.90
63966;DHT22;50151;52.030;5.350;2023-02-22T14:53:59;10.20;99.90
63966;DHT22;50151;52.030;5.350;2023-02-22T14:56:33;10.10;99.90
63966;DHT22;50151;52.030;5.350;2023-02-22T15:01:38;10.10;99.90
63966;DHT22;50151;52.030;5.350;2023-02-22T15:04:27;10.00;99.90
63966;DHT22;50151;52.030;5.350;2023-02-22T15:06:56;10.10;99.90
63966;DHT22;50151;52.030;5.350;2023-02-22T15:09:29;10.10;99.90
63966;DHT22;50151;52.030;5.350;2023-02-22T15:14:33;10.00;99.90
63966;DHT22;50151;52.030;5.350;2023-02-22T15:17:23;10.00;99.90
63966;DHT22;50151;52.030;5.350;2023-02-22T15:19:51;10.00;99.90
63966;DHT22;50151;52.030;5.350;2023-02-22T15:22:24;10.00;99.90
63966;DHT22;50151;52.030;5.350;2023-02-22T15:25:03;10.00;99.90
63966;DHT22;50151;52.030;5.350;2023-02-22T15:27:30;10.00;99.90
63966;DHT22;50151;52.030;5.350;2023-02-22T15:30:06;10.00;99.90
63966;DHT22;50151;52.030;5.350;2023-02-22T15:32:37;9.90;99.90
63966;DHT22;50151;52.030;5.350;2023-02-22T15:35:26;10.00;99.90
63966;DHT22;50151;52.030;5.350;2023-02-22T15:40:38;10.00;99.90
63966;DHT22;50151;52.030;5.350;2023-02-22T15:43:19;10.00;99.90
63966;DHT22;50151;52.030;5.350;2023-02-22T15:45:50;10.00;99.90
63966;DHT22;50151;52.030;5.350;2023-02-22T15:48:17;9.90;99.90
63966;DHT22;50151;52.030;5.350;2023-02-22T15:51:04;9.90;99.90
63966;DHT22;50151;52.030;5.350;2023-02-22T15:53:46;9.90;99.90
63966;DHT22;50151;52.030;5.350;2023-02-22T15:56:22;9.90;99.90
63966;DHT22;50151;52.030;5.350;2023-02-22T15:58:50;9.90;99.90
63966;DHT22;50151;52.030;5.350;2023-02-22T16:01:18;9.90;99.90
63966;DHT22;50151;52.030;5.350;2023-02-22T16:03:58;9.80;99.90
63966;DHT22;50151;52.030;5.350;2023-02-22T16:06:32;9.70;99.90
63966;DHT22;50151;52.030;5.350;2023-02-22T16:09:06;9.70;99.90
63966;DHT22;50151;52.030;5.350;2023-02-22T16:11:37;9.70;99.90
63966;DHT22;50151;52.030;5.350;2023-02-22T16:19:51;9.60;99.90
63966;DHT22;50151;52.030;5.350;2023-02-22T16:22:36;9.70;99.90
63966;DHT22;50151;52.030;5.350;2023-02-22T16:27:50;9.60;99.90
63966;DHT22;50151;52.030;5.350;2023-02-22T16:30:22;9.60;99.90
63966;DHT22;50151;52.030;5.350;2023-02-22T16:32:53;9.60;99.90
63966;DHT22;50151;52.030;5.350;2023-02-22T16:35:20;9.60;99.90
63966;DHT22;50151;52.030;5.350;2023-02-22T16:37:50;9.60;99.90
63966;DHT22;50151;52.030;5.350;2023-02-22T16:40:21;9.60;99.90
63966;DHT22;50151;52.030;5.350;2023-02-22T16:42:48;9.50;99.90
63966;DHT22;50151;52.030;5.350;2023-02-22T16:45:16;9.50;99.90
63966;DHT22;50151;52.030;5.350;2023-02-22T16:47:44;9.40;99.90
63966;DHT22;50151;52.030;5.350;2023-02-22T16:50:11;9.50;99.90
63966;DHT22;50151;52.030;5.350;2023-02-22T16:52:38;9.40;99.90
63966;DHT22;50151;52.030;5.350;2023-02-22T16:55:11;9.40;99.90
63966;DHT22;50151;52.030;5.350;2023-02-22T16:57:40;9.40;99.90
63966;DHT22;50151;52.030;5.350;2023-02-22T17:00:14;9.40;99.90
63966;DHT22;50151;52.030;5.350;2023-02-22T17:02:41;9.40;99.90
63966;DHT22;50151;52.030;5.350;2023-02-22T17:05:08;9.30;99.90
63966;DHT22;50151;52.030;5.350;2023-02-22T17:07:38;9.30;99.90
63966;DHT22;50151;52.030;5.350;2023-02-22T17:10:06;9.30;99.90
63966;DHT22;50151;52.030;5.350;2023-02-22T17:12:33;9.30;99.90
63966;DHT22;50151;52.030;5.350;2023-02-22T17:15:00;9.30;99.90
63966;DHT22;50151;52.030;5.350;2023-02-22T17:17:28;9.20;99.90
63966;DHT22;50151;52.030;5.350;2023-02-22T17:19:58;9.30;99.90
63966;DHT22;50151;52.030;5.350;2023-02-22T17:22:26;9.20;99.90
63966;DHT22;50151;52.030;5.350;2023-02-22T17:24:53;9.20;99.90
63966;DHT22;50151;52.030;5.350;2023-02-22T17:27:20;9.20;99.90
63966;DHT22;50151;52.030;5.350;2023-02-22T17:29:46;9.20;99.90
63966;DHT22;50151;52.030;5.350;2023-02-22T17:32:14;9.20;99.90
63966;DHT22;50151;52.030;5.350;2023-02-22T17:34:41;9.20;99.90
63966;DHT22;50151;52.030;5.350;2023-02-22T17:37:08;9.20;99.90
63966;DHT22;50151;52.030;5.350;2023-02-22T17:39:34;9.20;99.90
63966;DHT22;50151;52.030;5.350;2023-02-22T17:42:01;9.10;99.90
63966;DHT22;50151;52.030;5.350;2023-02-22T17:44:28;9.20;99.90
63966;DHT22;50151;52.030;5.350;2023-02-22T17:46:55;9.20;99.90
63966;DHT22;50151;52.030;5.350;2023-02-22T17:49:22;9.20;99.90
63966;DHT22;50151;52.030;5.350;2023-02-22T17:51:49;9.20;99.90
63966;DHT22;50151;52.030;5.350;2023-02-22T17:54:16;9.20;99.90
63966;DHT22;50151;52.030;5.350;2023-02-22T17:56:43;9.20;99.90
63966;DHT22;50151;52.030;5.350;2023-02-22T17:59:10;9.20;99.90
63966;DHT22;50151;52.030;5.350;2023-02-22T18:01:37;9.20;99.90
63966;DHT22;50151;52.030;5.350;2023-02-22T18:04:04;9.20;99.90
63966;DHT22;50151;52.030;5.350;2023-02-22T18:06:31;9.10;99.90
63966;DHT22;50151;52.030;5.350;2023-02-22T18:08:59;9.20;99.90
63966;DHT22;50151;52.030;5.350;2023-02-22T18:11:27;9.10;99.90
63966;DHT22;50151;52.030;5.350;2023-02-22T18:13:56;9.10;99.90
63966;DHT22;50151;52.030;5.350;2023-02-22T18:16:23;9.10;99.90
63966;DHT22;50151;52.030;5.350;2023-02-22T18:18:54;9.10;99.90
63966;DHT22;50151;52.030;5.350;2023-02-22T18:21:22;9.10;99.90
63966;DHT22;50151;52.030;5.350;2023-02-22T18:23:49;9.10;99.90
63966;DHT22;50151;52.030;5.350;2023-02-22T18:26:18;9.10;99.90
63966;DHT22;50151;52.030;5.350;2023-02-22T18:28:46;9.10;99.90
63966;DHT22;50151;52.030;5.350;2023-02-22T18:31:18;9.10;99.90
63966;DHT22;50151;52.030;5.350;2023-02-22T18:33:49;9.10;99.90
63966;DHT22;50151;52.030;5.350;2023-02-22T18:36:17;9.10;99.90
63966;DHT22;50151;52.030;5.350;2023-02-22T18:38:50;9.10;99.90
63966;DHT22;50151;52.030;5.350;2023-02-22T18:41:19;9.10;99.90
63966;DHT22;50151;52.030;5.350;2023-02-22T18:43:50;9.10;99.90
63966;DHT22;50151;52.030;5.350;2023-02-22T18:46:21;9.10;99.90
63966;DHT22;50151;52.030;5.350;2023-02-22T18:48:51;9.10;99.90
63966;DHT22;50151;52.030;5.350;2023-02-22T18:51:18;9.10;99.90
63966;DHT22;50151;52.030;5.350;2023-02-22T18:53:45;9.10;99.90
63966;DHT22;50151;52.030;5.350;2023-02-22T18:56:15;9.10;99.90
63966;DHT22;50151;52.030;5.350;2023-02-22T18:58:47;9.10;99.90
63966;DHT22;50151;52.030;5.350;2023-02-22T19:01:17;9.10;99.90
63966;DHT22;50151;52.030;5.350;2023-02-22T19:03:45;9.10;99.90
63966;DHT22;50151;52.030;5.350;2023-02-22T19:06:13;9.10;99.90
63966;DHT22;50151;52.030;5.350;2023-02-22T19:08:41;9.00;99.90
63966;DHT22;50151;52.030;5.350;2023-02-22T19:11:14;9.00;99.90
63966;DHT22;50151;52.030;5.350;2023-02-22T19:13:45;9.00;99.90
63966;DHT22;50151;52.030;5.350;2023-02-22T19:16:12;9.00;99.90
63966;DHT22;50151;52.030;5.350;2023-02-22T19:18:40;9.00;99.90
63966;DHT22;50151;52.030;5.350;2023-02-22T19:21:10;9.10;99.90
63966;DHT22;50151;52.030;5.350;2023-02-22T19:23:37;9.00;99.90
63966;DHT22;50151;52.030;5.350;2023-02-22T19:26:16;9.00;99.90
63966;DHT22;50151;52.030;5.350;2023-02-22T19:28:47;9.00;99.90
63966;DHT22;50151;52.030;5.350;2023-02-22T19:31:16;9.00;99.90
63966;DHT22;50151;52.030;5.350;2023-02-22T19:33:45;9.00;99.90
63966;DHT22;50151;52.030;5.350;2023-02-22T19:36:14;8.90;99.90
63966;DHT22;50151;52.030;5.350;2023-02-22T19:38:41;8.90;99.90
63966;DHT22;50151;52.030;5.350;2023-02-22T19:41:13;8.90;99.90
63966;DHT22;50151;52.030;5.350;2023-02-22T19:43:44;8.90;99.90
63966;DHT22;50151;52.030;5.350;2023-02-22T19:46:11;8.80;99.90
63966;DHT22;50151;52.030;5.350;2023-02-22T19:48:38;8.80;99.90
63966;DHT22;50151;52.030;5.350;2023-02-22T19:51:11;8.70;99.90
63966;DHT22;50151;52.030;5.350;2023-02-22T19:53:39;8.70;99.90
63966;DHT22;50151;52.030;5.350;2023-02-22T19:56:17;8.70;99.90
63966;DHT22;50151;52.030;5.350;2023-02-22T19:58:47;8.70;99.90
63966;DHT22;50151;52.030;5.350;2023-02-22T20:01:21;8.60;99.90
63966;DHT22;50151;52.030;5.350;2023-02-22T20:03:50;8.60;99.90
63966;DHT22;50151;52.030;5.350;2023-02-22T20:06:26;8.60;99.90
63966;DHT22;50151;52.030;5.350;2023-02-22T20:08:56;8.60;99.90
63966;DHT22;50151;52.030;5.350;2023-02-22T20:11:23;8.60;99.90
63966;DHT22;50151;52.030;5.350;2023-02-22T20:13:50;8.60;99.90
63966;DHT22;50151;52.030;5.350;2023-02-22T20:16:17;8.60;99.90
63966;DHT22;50151;52.030;5.350;2023-02-22T20:18:45;8.60;99.90
63966;DHT22;50151;52.030;5.350;2023-02-22T20:21:21;8.60;99.90
63966;DHT22;50151;52.030;5.350;2023-02-22T20:23:49;8.60;99.90
63966;DHT22;50151;52.030;5.350;2023-02-22T20:26:19;8.50;99.90
63966;DHT22;50151;52.030;5.350;2023-02-22T20:28:48;8.50;99.90
63966;DHT22;50151;52.030;5.350;2023-02-22T20:31:16;8.50;99.90
63966;DHT22;50151;52.030;5.350;2023-02-22T20:33:45;8.50;99.90
63966;DHT22;50151;52.030;5.350;2023-02-22T20:36:17;8.50;99.90
63966;DHT22;50151;52.030;5.350;2023-02-22T20:38:44;8.60;99.90
63966;DHT22;50151;52.030;5.350;2023-02-22T20:41:14;8.50;99.90
63966;DHT22;50151;52.030;5.350;2023-02-22T20:43:41;8.50;99.90
63966;DHT22;50151;52.030;5.350;2023-02-22T20:46:07;8.50;99.90
63966;DHT22;50151;52.030;5.350;2023-02-22T20:48:34;8.50;99.90
63966;DHT22;50151;52.030;5.350;2023-02-22T20:51:09;8.50;99.90
63966;DHT22;50151;52.030;5.350;2023-02-22T20:53:37;8.50;99.90
63966;DHT22;50151;52.030;5.350;2023-02-22T20:58:38;8.40;99.90
63966;DHT22;50151;52.030;5.350;2023-02-22T21:01:06;8.50;99.90
63966;DHT22;50151;52.030;5.350;2023-02-22T21:03:34;8.40;99.90
63966;DHT22;50151;52.030;5.350;2023-02-22T21:06:04;8.40;99.90
63966;DHT22;50151;52.030;5.350;2023-02-22T21:08:32;8.40;99.90
63966;DHT22;50151;52.030;5.350;2023-02-22T21:10:58;8.40;99.90
63966;DHT22;50151;52.030;5.350;2023-02-22T21:13:26;8.50;99.90
63966;DHT22;50151;52.030;5.350;2023-02-22T21:15:53;8.50;99.90
63966;DHT22;50151;52.030;5.350;2023-02-22T21:18:20;8.40;99.90
63966;DHT22;50151;52.030;5.350;2023-02-22T21:20:50;8.40;99.90
63966;DHT22;50151;52.030;5.350;2023-02-22T21:23:16;8.40;99.90
63966;DHT22;50151;52.030;5.350;2023-02-22T21:25:53;8.40;99.90
63966;DHT22;50151;52.030;5.350;2023-02-22T21:28:20;8.40;99.90
63966;DHT22;50151;52.030;5.350;2023-02-22T21:30:46;8.40;99.90
63966;DHT22;50151;52.030;5.350;2023-02-22T21:33:13;8.40;99.90
63966;DHT22;50151;52.030;5.350;2023-02-22T21:35:41;8.40;99.90
63966;DHT22;50151;52.030;5.350;2023-02-22T21:38:13;8.40;99.90
63966;DHT22;50151;52.030;5.350;2023-02-22T21:40:40;8.30;99.90
63966;DHT22;50151;52.030;5.350;2023-02-22T21:43:07;8.40;99.90
63966;DHT22;50151;52.030;5.350;2023-02-22T21:45:36;8.40;99.90
63966;DHT22;50151;52.030;5.350;2023-02-22T21:48:04;8.30;99.90
63966;DHT22;50151;52.030;5.350;2023-02-22T21:50:31;8.30;99.90
63966;DHT22;50151;52.030;5.350;2023-02-22T21:53:03;8.30;99.90
63966;DHT22;50151;52.030;5.350;2023-02-22T21:55:32;8.30;99.90
63966;DHT22;50151;52.030;5.350;2023-02-22T21:57:59;8.40;99.90
63966;DHT22;50151;52.030;5.350;2023-02-22T22:00:25;8.30;99.90
63966;DHT22;50151;52.030;5.350;2023-02-22T22:02:56;8.30;99.90
63966;DHT22;50151;52.030;5.350;2023-02-22T22:05:52;8.30;99.90
63966;DHT22;50151;52.030;5.350;2023-02-22T22:08:19;8.30;99.90
63966;DHT22;50151;52.030;5.350;2023-02-22T22:10:52;8.30;99.90
63966;DHT22;50151;52.030;5.350;2023-02-22T22:13:21;8.30;99.90
63966;DHT22;50151;52.030;5.350;2023-02-22T22:15:48;8.30;99.90
63966;DHT22;50151;52.030;5.350;2023-02-22T22:18:15;8.30;99.90
63966;DHT22;50151;52.030;5.350;2023-02-22T22:20:42;8.30;99.90
63966;DHT22;50151;52.030;5.350;2023-02-22T22:31:18;8.20;99.90
63966;DHT22;50151;52.030;5.350;2023-02-22T22:33:46;8.20;99.90
63966;DHT22;50151;52.030;5.350;2023-02-22T22:36:15;8.20;99.90
63966;DHT22;50151;52.030;5.350;2023-02-22T22:38:42;8.20;99.90
63966;DHT22;50151;52.030;5.350;2023-02-22T22:41:14;8.20;99.90
63966;DHT22;50151;52.030;5.350;2023-02-22T22:43:42;8.20;99.90
63966;DHT22;50151;52.030;5.350;2023-02-22T22:46:14;8.20;99.90
63966;DHT22;50151;52.030;5.350;2023-02-22T22:48:42;8.20;99.90
63966;DHT22;50151;52.030;5.350;2023-02-22T22:51:14;8.20;99.90
63966;DHT22;50151;52.030;5.350;2023-02-22T22:53:43;8.20;99.90
63966;DHT22;50151;52.030;5.350;2023-02-22T22:56:13;8.20;99.90
63966;DHT22;50151;52.030;5.350;2023-02-22T22:58:48;8.20;99.90
63966;DHT22;50151;52.030;5.350;2023-02-22T23:01:17;8.20;99.90
63966;DHT22;50151;52.030;5.350;2023-02-22T23:03:47;8.20;99.90
63966;DHT22;50151;52.030;5.350;2023-02-22T23:06:22;8.30;99.90
63966;DHT22;50151;52.030;5.350;2023-02-22T23:08:59;8.20;99.90
63966;DHT22;50151;52.030;5.350;2023-02-22T23:11:28;8.10;99.90
63966;DHT22;50151;52.030;5.350;2023-02-22T23:13:55;8.10;99.90
63966;DHT22;50151;52.030;5.350;2023-02-22T23:16:23;8.20;99.90
63966;DHT22;50151;52.030;5.350;2023-02-22T23:18:50;8.10;99.90
63966;DHT22;50151;52.030;5.350;2023-02-22T23:21:20;8.20;99.90
63966;DHT22;50151;52.030;5.350;2023-02-22T23:23:54;8.20;99.90
63966;DHT22;50151;52.030;5.350;2023-02-22T23:26:21;8.20;99.90
63966;DHT22;50151;52.030;5.350;2023-02-22T23:28:54;8.10;99.90
63966;DHT22;50151;52.030;5.350;2023-02-22T23:31:22;8.20;99.90
63966;DHT22;50151;52.030;5.350;2023-02-22T23:33:49;8.10;99.90
63966;DHT22;50151;52.030;5.350;2023-02-22T23:36:17;8.10;99.90
63966;DHT22;50151;52.030;5.350;2023-02-22T23:38:44;8.10;99.90
63966;DHT22;50151;52.030;5.350;2023-02-22T23:41:14;8.10;99.90
63966;DHT22;50151;52.030;5.350;2023-02-22T23:43:44;8.10;99.90
63966;DHT22;50151;52.030;5.350;2023-02-22T23:46:16;8.10;99.90
63966;DHT22;50151;52.030;5.350;2023-02-22T23:48:52;8.10;99.90
63966;DHT22;50151;52.030;5.350;2023-02-22T23:51:21;8.10;99.90
63966;DHT22;50151;52.030;5.350;2023-02-22T23:53:52;8.10;99.90
63966;DHT22;50151;52.030;5.350;2023-02-22T23:56:26;8.10;99.90
63966;DHT22;50151;52.030;5.350;2023-02-22T23:58:53;8.10;99.90
